Time;durP1;ratioP1;P1;durP2;ratioP2;P2;SDS_P1;SDS_P2;PMS_P1;PMS_P2;Temp;Humidity;BMP_temperature;BMP_pressure;BME280_temperature;BME280_humidity;BME280_pressure;Samples;Min_cycle;Max_cycle;Signal;HPM_P1;HPM_P2
2022/04/13 00:01:47;;;;;;;4.63;3.83;;;;;;;;;;6264708;28;20109;-78
2022/04/13 00:04:49;;;;;;;5.05;3.53;;;;;;;;;;6265118;28;20057;-77
2022/04/13 00:07:51;;;;;;;5.60;3.72;;;;;;;;;;6264878;28;20495;-77
2022/04/13 00:10:53;;;;;;;5.07;4.07;;;;;;;;;;6264066;28;20045;-79
2022/04/13 00:13:54;;;;;;;8.23;3.50;;;;;;;;;;6265285;28;20722;-77
2022/04/13 00:16:56;;;;;;;5.35;3.40;;;;;;;;;;6263886;28;20442;-79
2022/04/13 00:19:59;;;;;;;5.15;3.00;;;;;;;;;;6313896;28;20072;-79
2022/04/13 00:23:01;;;;;;;3.47;2.85;;;;;;;;;;6264468;28;20041;-78
2022/04/13 00:26:03;;;;;;;4.60;3.08;;;;;;;;;;6240726;28;20105;-77
2022/04/13 00:29:05;;;;;;;5.22;3.80;;;;;;;;;;6262759;28;20048;-76
2022/04/13 00:32:07;;;;;;;3.72;3.28;;;;;;;;;;6241564;28;20046;-78
2022/04/13 00:35:09;;;;;;;5.95;3.50;;;;;;;;;;6243797;28;20383;-78
2022/04/13 00:38:11;;;;;;;4.25;2.63;;;;;;;;;;6243566;28;20046;-78
2022/04/13 00:41:13;;;;;;;4.78;2.80;;;;;;;;;;6244937;28;20045;-80
2022/04/13 00:44:14;;;;;;;6.20;3.75;;;;;;;;;;6244263;28;20085;-78
2022/04/13 00:47:18;;;;;;;4.38;3.28;;;;;;;;;;6273918;28;20077;-80
2022/04/13 00:50:20;;;;;;;;;;;;;;;;;;6294015;28;20080;-78
2022/04/13 00:53:23;;;;;;;5.18;3.00;;;;;;;;;;6292779;27;19972;-77
2022/04/13 00:56:27;;;;;;;4.82;3.25;;;;;;;;;;6272486;28;20100;-78
2022/04/13 00:59:31;;;;;;;6.03;3.38;;;;;;;;;;6267963;28;20122;-79
2022/04/13 01:02:36;;;;;;;6.78;3.67;;;;;;;;;;6267635;28;20064;-78
2022/04/13 01:05:39;;;;;;;5.80;3.63;;;;;;;;;;6265294;28;20041;-78
2022/04/13 01:08:42;;;;;;;4.35;3.55;;;;;;;;;;6265236;28;20045;-78
2022/04/13 01:11:44;;;;;;;5.47;2.80;;;;;;;;;;6287859;28;20448;-79
2022/04/13 01:14:46;;;;;;;3.58;2.80;;;;;;;;;;6297507;28;20101;-78
2022/04/13 01:17:48;;;;;;;5.57;2.63;;;;;;;;;;6277003;28;20044;-78
2022/04/13 01:20:54;;;;;;;3.10;2.80;;;;;;;;;;6266824;28;20048;-78
2022/04/13 01:23:55;;;;;;;4.65;2.90;;;;;;;;;;6257370;28;20045;-80
2022/04/13 01:26:57;;;;;;;5.88;2.97;;;;;;;;;;6284349;28;20125;-78
2022/04/13 01:29:59;;;;;;;4.70;3.05;;;;;;;;;;6290395;28;20072;-80
2022/04/13 01:33:01;;;;;;;6.55;3.40;;;;;;;;;;6302779;28;20120;-80
2022/04/13 01:36:06;;;;;;;4.57;3.33;;;;;;;;;;6295567;28;20044;-78
2022/04/13 01:39:08;;;;;;;5.60;3.17;;;;;;;;;;6292344;28;20114;-78
2022/04/13 01:42:10;;;;;;;5.10;3.20;;;;;;;;;;6287922;28;20043;-78
2022/04/13 01:45:13;;;;;;;5.35;3.88;;;;;;;;;;6268749;28;20158;-77
2022/04/13 01:48:14;;;;;;;5.78;4.05;;;;;;;;;;6276762;28;20077;-78
2022/04/13 01:51:20;;;;;;;4.28;3.40;;;;;;;;;;6294925;28;20109;-78
2022/04/13 01:54:22;;;;;;;4.32;3.10;;;;;;;;;;6289909;28;20043;-77
2022/04/13 01:57:24;;;;;;;3.78;3.00;;;;;;;;;;6293992;28;20114;-77
2022/04/13 02:00:25;;;;;;;3.97;3.03;;;;;;;;;;6284433;28;20048;-77
2022/04/13 02:03:27;;;;;;;5.75;3.45;;;;;;;;;;6267924;28;20048;-76
2022/04/13 02:06:29;;;;;;;6.57;3.42;;;;;;;;;;6283036;28;20045;-79
2022/04/13 02:09:31;;;;;;;5.28;3.35;;;;;;;;;;6268401;28;20071;-78
2022/04/13 02:12:32;;;;;;;4.80;2.92;;;;;;;;;;6278473;28;20174;-78
2022/04/13 02:15:34;;;;;;;6.93;3.45;;;;;;;;;;6284669;28;20094;-78
2022/04/13 02:18:36;;;;;;;5.82;3.30;;;;;;;;;;6285959;28;20095;-76
2022/04/13 02:21:39;;;;;;;3.35;2.50;;;;;;;;;;6269804;28;20052;-78
2022/04/13 02:24:40;;;;;;;4.40;3.10;;;;;;;;;;6272324;28;20130;-76
2022/04/13 02:27:42;;;;;;;4.07;2.83;;;;;;;;;;6294407;28;20068;-78
2022/04/13 02:30:44;;;;;;;5.07;3.33;;;;;;;;;;6282403;28;20130;-77
2022/04/13 02:33:48;;;;;;;5.72;3.70;;;;;;;;;;6270100;28;20044;-78
2022/04/13 02:36:49;;;;;;;5.15;3.50;;;;;;;;;;6268811;28;20124;-77
2022/04/13 02:39:51;;;;;;;4.22;3.30;;;;;;;;;;6269435;28;20069;-77
2022/04/13 02:42:52;;;;;;;6.40;3.55;;;;;;;;;;6284304;28;20095;-79
2022/04/13 02:45:54;;;;;;;3.42;3.13;;;;;;;;;;6274340;28;20399;-77
2022/04/13 02:48:56;;;;;;;4.88;2.78;;;;;;;;;;6294136;28;20044;-77
2022/04/13 02:51:57;;;;;;;4.00;3.38;;;;;;;;;;6291223;28;20505;-76
2022/04/13 02:54:59;;;;;;;3.80;2.75;;;;;;;;;;6283416;28;20088;-78
2022/04/13 02:58:01;;;;;;;4.78;2.75;;;;;;;;;;6268127;28;20040;-80
2022/04/13 03:01:04;;;;;;;3.30;2.80;;;;;;;;;;6276551;28;20090;-78
2022/04/13 03:04:06;;;;;;;6.30;3.10;;;;;;;;;;6268849;28;20045;-78
2022/04/13 03:07:07;;;;;;;5.03;3.13;;;;;;;;;;6268759;28;20118;-77
2022/04/13 03:10:09;;;;;;;3.90;3.13;;;;;;;;;;6267881;28;20076;-76
2022/04/13 03:13:11;;;;;;;4.85;2.97;;;;;;;;;;6269225;28;20128;-79
2022/04/13 03:16:13;;;;;;;5.00;2.97;;;;;;;;;;6269031;28;20055;-79
2022/04/13 03:19:14;;;;;;;4.70;2.92;;;;;;;;;;6262066;28;20044;-80
2022/04/13 03:22:16;;;;;;;5.32;3.30;;;;;;;;;;6284693;28;20087;-77
2022/04/13 03:25:18;;;;;;;5.55;3.50;;;;;;;;;;6273567;28;20064;-77
2022/04/13 03:28:23;;;;;;;5.88;3.70;;;;;;;;;;6275782;28;20280;-77
2022/04/13 03:31:25;;;;;;;4.65;3.22;;;;;;;;;;6275102;28;20076;-78
2022/04/13 03:34:28;;;;;;;5.15;3.20;;;;;;;;;;6263470;28;20044;-77
2022/04/13 03:37:29;;;;;;;5.43;3.80;;;;;;;;;;6271185;28;20119;-77
2022/04/13 03:40:31;;;;;;;6.45;3.50;;;;;;;;;;6271449;28;20045;-79
2022/04/13 03:43:32;;;;;;;4.78;3.67;;;;;;;;;;6271815;28;20048;-79
2022/04/13 03:46:34;;;;;;;6.28;3.50;;;;;;;;;;6276598;28;20071;-78
2022/04/13 03:49:36;;;;;;;6.45;4.10;;;;;;;;;;6282038;28;20090;-79
2022/04/13 03:52:38;;;;;;;7.00;3.83;;;;;;;;;;6288861;28;20116;-77
2022/04/13 03:55:40;;;;;;;9.20;5.32;;;;;;;;;;6287774;28;20170;-78
2022/04/13 03:58:41;;;;;;;4.70;3.25;;;;;;;;;;6265353;28;20380;-79
2022/04/13 04:01:43;;;;;;;5.13;3.58;;;;;;;;;;6263851;28;20158;-80
2022/04/13 04:04:45;;;;;;;5.82;3.65;;;;;;;;;;6265986;28;20045;-79
2022/04/13 04:07:46;;;;;;;4.68;3.65;;;;;;;;;;6265823;28;20108;-79
2022/04/13 04:10:48;;;;;;;5.85;3.60;;;;;;;;;;6268936;28;20139;-79
2022/04/13 04:13:50;;;;;;;6.50;4.07;;;;;;;;;;6248300;28;20049;-78
2022/04/13 04:16:51;;;;;;;5.80;3.88;;;;;;;;;;6246719;28;20128;-78
2022/04/13 04:19:53;;;;;;;5.28;3.38;;;;;;;;;;6247802;28;20041;-78
2022/04/13 04:22:55;;;;;;;3.53;2.97;;;;;;;;;;6246528;28;20050;-79
2022/04/13 04:25:57;;;;;;;9.20;3.35;;;;;;;;;;6261332;28;20064;-78
2022/04/13 04:28:59;;;;;;;6.78;3.55;;;;;;;;;;6271959;28;20094;-79
2022/04/13 04:32:02;;;;;;;5.28;3.42;;;;;;;;;;6248686;28;20119;-78
2022/04/13 04:35:05;;;;;;;4.18;3.00;;;;;;;;;;6245125;28;20103;-77
2022/04/13 04:38:07;;;;;;;5.15;3.17;;;;;;;;;;6243873;28;20045;-79
2022/04/13 04:41:09;;;;;;;3.97;3.03;;;;;;;;;;6241923;28;20091;-78
2022/04/13 04:44:11;;;;;;;4.03;2.97;;;;;;;;;;6241178;28;20129;-75
2022/04/13 04:47:12;;;;;;;4.72;3.45;;;;;;;;;;6257393;28;20087;-76
2022/04/13 04:50:15;;;;;;;4.50;3.08;;;;;;;;;;6265016;28;20103;-76
2022/04/13 04:53:17;;;;;;;7.30;3.17;;;;;;;;;;6291700;28;20143;-76
2022/04/13 04:56:18;;;;;;;6.60;2.97;;;;;;;;;;6270015;28;20151;-79
2022/04/13 04:59:20;;;;;;;6.30;3.13;;;;;;;;;;6267413;28;20095;-78
2022/04/13 05:02:21;;;;;;;5.05;3.42;;;;;;;;;;6263928;28;20045;-76
2022/04/13 05:05:23;;;;;;;5.20;3.30;;;;;;;;;;6262256;28;20387;-77
2022/04/13 05:08:25;;;;;;;5.75;3.97;;;;;;;;;;6265573;28;20132;-79
2022/04/13 05:11:26;;;;;;;6.18;3.80;;;;;;;;;;6265445;28;20089;-79
2022/04/13 05:14:29;;;;;;;6.80;3.88;;;;;;;;;;6267076;28;20170;-76
2022/04/13 05:17:30;;;;;;;6.20;3.40;;;;;;;;;;6267277;28;20091;-78
2022/04/13 05:20:32;;;;;;;5.70;3.88;;;;;;;;;;6266018;28;20167;-78
2022/04/13 05:23:35;;;;;;;4.57;2.95;;;;;;;;;;6266124;28;20053;-77
2022/04/13 05:26:37;;;;;;;7.00;3.60;;;;;;;;;;6285354;28;20189;-79
2022/04/13 05:29:38;;;;;;;7.05;3.70;;;;;;;;;;6286849;28;20065;-78
2022/04/13 05:32:47;;;;;;;6.88;3.53;;;;;;;;;;6262620;28;20128;-78
2022/04/13 05:35:49;;;;;;;5.82;3.40;;;;;;;;;;6266072;28;20536;-77
2022/04/13 05:38:51;;;;;;;5.68;3.58;;;;;;;;;;6266805;28;20061;-78
2022/04/13 05:41:53;;;;;;;7.10;4.10;;;;;;;;;;6280908;28;20456;-78
2022/04/13 05:44:54;;;;;;;8.70;5.60;;;;;;;;;;6266347;28;20041;-76
2022/04/13 05:47:57;;;;;;;7.35;4.22;;;;;;;;;;6286827;28;20267;-77
2022/04/13 05:50:59;;;;;;;6.60;4.60;;;;;;;;;;6290359;28;20064;-75
2022/04/13 05:54:04;;;;;;;6.78;4.28;;;;;;;;;;6291588;28;20392;-80
2022/04/13 05:57:06;;;;;;;7.50;4.78;;;;;;;;;;6266248;28;20194;-79
2022/04/13 06:00:10;;;;;;;5.25;3.58;;;;;;;;;;6265924;28;20053;-78
2022/04/13 06:03:12;;;;;;;7.13;4.22;;;;;;;;;;6266436;28;20041;-77
2022/04/13 06:06:34;;;;;;;7.32;4.50;;;;;;;;;;6266846;28;20497;-77
2022/04/13 06:09:35;;;;;;;5.75;4.35;;;;;;;;;;6264476;28;20126;-78
2022/04/13 06:12:37;;;;;;;6.78;4.57;;;;;;;;;;6265202;28;20045;-77
2022/04/13 06:15:39;;;;;;;7.22;5.47;;;;;;;;;;6264284;28;20041;-78
2022/04/13 06:18:40;;;;;;;8.98;6.05;;;;;;;;;;6266298;28;20515;-78
2022/04/13 06:21:42;;;;;;;14.43;7.53;;;;;;;;;;6280479;28;20219;-77
2022/04/13 06:24:44;;;;;;;13.02;8.50;;;;;;;;;;6268131;28;20075;-78
2022/04/13 06:27:46;;;;;;;7.97;5.15;;;;;;;;;;6290690;28;20574;-77
2022/04/13 06:30:48;;;;;;;6.38;4.20;;;;;;;;;;6276334;28;21730;-78
2022/04/13 06:33:49;;;;;;;6.18;3.63;;;;;;;;;;6267011;28;20109;-79
2022/04/13 06:36:51;;;;;;;6.75;3.95;;;;;;;;;;6271177;28;20049;-77
2022/04/13 06:39:53;;;;;;;5.35;3.50;;;;;;;;;;6262510;28;20517;-79
2022/04/13 06:42:56;;;;;;;5.93;4.00;;;;;;;;;;6288329;28;20119;-80
2022/04/13 06:45:58;;;;;;;5.85;4.13;;;;;;;;;;6266462;28;20041;-78
2022/04/13 06:49:00;;;;;;;5.85;3.75;;;;;;;;;;6265824;28;20115;-80
2022/04/13 06:52:01;;;;;;;4.85;3.55;;;;;;;;;;6265248;28;20175;-79
2022/04/13 06:55:05;;;;;;;11.38;3.97;;;;;;;;;;6261214;28;20041;-76
2022/04/13 06:58:07;;;;;;;6.45;4.05;;;;;;;;;;6264311;28;20476;-77
2022/04/13 07:01:09;;;;;;;6.53;4.03;;;;;;;;;;6264591;28;20110;-77
2022/04/13 07:04:11;;;;;;;8.93;4.50;;;;;;;;;;6265642;28;20378;-78
2022/04/13 07:07:14;;;;;;;5.32;4.00;;;;;;;;;;6265400;28;20164;-79
2022/04/13 07:10:15;;;;;;;8.75;4.38;;;;;;;;;;6265771;28;20124;-79
2022/04/13 07:13:22;;;;;;;5.65;3.78;;;;;;;;;;6263786;28;20102;-79
2022/04/13 07:16:23;;;;;;;8.77;4.03;;;;;;;;;;6265542;28;20057;-78
2022/04/13 07:19:25;;;;;;;6.22;4.25;;;;;;;;;;6265908;28;20048;-79
2022/04/13 07:22:27;;;;;;;8.65;3.88;;;;;;;;;;6265514;28;20144;-79
2022/04/13 07:25:28;;;;;;;9.35;4.38;;;;;;;;;;6275593;28;20064;-78
2022/04/13 07:28:30;;;;;;;10.88;4.47;;;;;;;;;;6268161;28;20637;-78
2022/04/13 07:31:33;;;;;;;7.32;3.90;;;;;;;;;;6265237;28;20045;-79
2022/04/13 07:34:36;;;;;;;5.43;4.15;;;;;;;;;;6267655;28;20439;-76
2022/04/13 07:37:39;;;;;;;6.35;3.83;;;;;;;;;;6266177;28;20064;-78
2022/04/13 07:40:41;;;;;;;9.05;4.15;;;;;;;;;;6265796;28;20049;-77
2022/04/13 07:43:44;;;;;;;6.35;3.03;;;;;;;;;;6266656;28;20083;-78
2022/04/13 07:46:45;;;;;;;4.25;3.30;;;;;;;;;;6284254;28;20056;-79
2022/04/13 07:49:48;;;;;;;7.20;3.17;;;;;;;;;;6299328;28;20108;-78
2022/04/13 07:52:49;;;;;;;7.55;3.85;;;;;;;;;;6295693;28;20666;-80
2022/04/13 07:55:51;;;;;;;10.73;4.53;;;;;;;;;;6285781;28;20045;-81
2022/04/13 07:58:52;;;;;;;9.48;3.70;;;;;;;;;;6270689;28;20048;-78
2022/04/13 08:01:54;;;;;;;10.25;3.20;;;;;;;;;;6272979;28;20500;-79
2022/04/13 08:04:56;;;;;;;7.28;3.60;;;;;;;;;;6272225;28;20045;-81
2022/04/13 08:08:04;;;;;;;6.00;3.00;;;;;;;;;;6272233;28;20144;-78
2022/04/13 08:11:06;;;;;;;7.17;3.83;;;;;;;;;;6271997;28;20079;-76
2022/04/13 08:14:08;;;;;;;7.07;2.63;;;;;;;;;;6269666;28;20187;-76
2022/04/13 08:17:09;;;;;;;6.00;2.30;;;;;;;;;;6269194;28;20072;-78
2022/04/13 08:20:13;;;;;;;6.53;2.60;;;;;;;;;;6267694;28;20052;-79
2022/04/13 08:23:18;;;;;;;7.35;2.90;;;;;;;;;;6268754;28;20051;-77
2022/04/13 08:26:20;;;;;;;3.72;2.35;;;;;;;;;;6287874;28;20070;-77
2022/04/13 08:29:21;;;;;;;5.00;2.83;;;;;;;;;;6295150;28;20133;-78
2022/04/13 08:32:23;;;;;;;4.60;2.35;;;;;;;;;;6268241;28;20052;-79
2022/04/13 08:35:25;;;;;;;5.43;2.00;;;;;;;;;;6266870;28;20123;-78
2022/04/13 08:38:27;;;;;;;3.28;1.83;;;;;;;;;;6266644;28;20603;-78
2022/04/13 08:41:47;;;;;;;3.97;2.13;;;;;;;;;;6281421;28;20108;-78
2022/04/13 08:44:51;;;;;;;4.10;1.95;;;;;;;;;;6267580;28;20123;-79
2022/04/13 08:47:59;;;;;;;3.15;1.80;;;;;;;;;;6288027;28;20063;-78
2022/04/13 08:51:03;;;;;;;3.45;1.88;;;;;;;;;;6291664;28;20370;-78
2022/04/13 08:54:19;;;;;;;2.42;1.70;;;;;;;;;;6291634;28;20052;-77
2022/04/13 08:57:22;;;;;;;2.55;1.65;;;;;;;;;;6292201;28;20052;-78
2022/04/13 09:00:27;;;;;;;2.17;1.75;;;;;;;;;;6284578;28;20064;-79
2022/04/13 09:03:29;;;;;;;2.10;1.63;;;;;;;;;;6268042;28;20087;-79
2022/04/13 09:06:33;;;;;;;3.90;2.00;;;;;;;;;;6299354;28;20047;-78
2022/04/13 09:09:41;;;;;;;2.60;1.70;;;;;;;;;;6261360;28;20041;-79
2022/04/13 09:12:43;;;;;;;3.78;1.92;;;;;;;;;;6264461;28;20083;-77
2022/04/13 09:15:45;;;;;;;2.72;1.65;;;;;;;;;;6274879;28;20049;-76
2022/04/13 09:18:49;;;;;;;3.50;2.20;;;;;;;;;;6262477;28;20045;-76
2022/04/13 09:21:52;;;;;;;5.90;1.92;;;;;;;;;;6260372;28;20132;-76
2022/04/13 09:24:54;;;;;;;5.60;1.92;;;;;;;;;;6277107;28;20040;-76
2022/04/13 09:27:58;;;;;;;2.55;1.88;;;;;;;;;;6312255;28;20567;-79
2022/04/13 09:31:00;;;;;;;3.78;2.30;;;;;;;;;;6286081;28;20218;-78
2022/04/13 09:34:02;;;;;;;5.10;1.95;;;;;;;;;;6265456;28;20040;-78
2022/04/13 09:37:04;;;;;;;3.78;1.80;;;;;;;;;;6240220;28;20192;-78
2022/04/13 09:40:06;;;;;;;4.70;1.95;;;;;;;;;;6238728;28;20176;-75
2022/04/13 09:43:14;;;;;;;6.20;2.13;;;;;;;;;;6237043;28;20053;-76
2022/04/13 09:46:29;;;;;;;4.28;2.20;;;;;;;;;;6239845;28;20287;-77
2022/04/13 09:49:30;;;;;;;4.68;2.30;;;;;;;;;;6240163;28;20045;-77
2022/04/13 09:52:38;;;;;;;3.75;2.28;;;;;;;;;;6241451;28;20123;-79
2022/04/13 09:55:42;;;;;;;5.28;2.40;;;;;;;;;;6290143;28;20417;-77
2022/04/13 09:58:44;;;;;;;4.72;2.58;;;;;;;;;;6289655;28;20064;-78
2022/04/13 10:01:47;;;;;;;12.43;6.70;;;;;;;;;;6276914;28;20127;-77
2022/04/13 10:04:49;;;;;;;16.85;8.90;;;;;;;;;;6262507;28;20086;-77
2022/04/13 10:08:12;;;;;;;9.02;3.90;;;;;;;;;;6261412;28;20118;-77
2022/04/13 10:11:13;;;;;;;5.50;3.30;;;;;;;;;;6261324;28;20045;-77
2022/04/13 10:14:18;;;;;;;12.07;4.45;;;;;;;;;;6262399;28;20109;-80
2022/04/13 10:17:20;;;;;;;3.38;1.92;;;;;;;;;;6262067;28;20088;-75
2022/04/13 10:20:22;;;;;;;5.00;2.60;;;;;;;;;;6260747;28;20717;-77
2022/04/13 10:23:23;;;;;;;6.35;2.83;;;;;;;;;;6262047;28;20542;-76
2022/04/13 10:26:25;;;;;;;4.15;2.30;;;;;;;;;;6293505;28;20044;-77
2022/04/13 10:29:27;;;;;;;2.78;1.58;;;;;;;;;;6278287;28;20254;-76
2022/04/13 10:32:29;;;;;;;4.18;1.90;;;;;;;;;;6274947;28;20151;-76
2022/04/13 10:35:33;;;;;;;5.50;2.20;;;;;;;;;;6263849;28;20094;-77
2022/04/13 10:38:35;;;;;;;4.30;1.67;;;;;;;;;;6279648;28;20163;-76
2022/04/13 10:41:38;;;;;;;4.93;1.80;;;;;;;;;;6275280;28;20082;-78
2022/04/13 10:44:53;;;;;;;3.20;1.67;;;;;;;;;;6283999;28;20056;-75
2022/04/13 10:47:56;;;;;;;4.95;1.98;;;;;;;;;;6281320;28;20078;-78
2022/04/13 10:51:09;;;;;;;2.05;1.60;;;;;;;;;;6286614;28;20048;-77
2022/04/13 10:54:14;;;;;;;3.43;1.70;;;;;;;;;;6282666;28;20201;-75
2022/04/13 10:57:19;;;;;;;3.67;1.60;;;;;;;;;;6270659;28;20056;-77
2022/04/13 11:00:23;;;;;;;5.35;2.10;;;;;;;;;;6277942;28;20076;-76
2022/04/13 11:03:25;;;;;;;2.20;1.67;;;;;;;;;;6262706;28;20060;-78
2022/04/13 11:06:27;;;;;;;;;;;;;;;;;;6265513;28;20043;-78
2022/04/13 11:09:49;;;;;;;3.67;1.70;;;;;;;;;;6282044;28;19999;-78
2022/04/13 11:12:52;;;;;;;4.25;1.60;;;;;;;;;;6281995;28;20103;-78
2022/04/13 11:15:54;;;;;;;3.10;1.80;;;;;;;;;;6258417;28;20125;-75
2022/04/13 11:19:01;;;;;;;2.10;1.60;;;;;;;;;;6253965;28;20175;-75
2022/04/13 11:22:07;;;;;;;3.65;1.80;;;;;;;;;;6258550;28;20831;-78
2022/04/13 11:25:09;;;;;;;2.67;1.70;;;;;;;;;;6264638;28;20125;-79
2022/04/13 11:28:11;;;;;;;2.67;1.73;;;;;;;;;;6282460;28;20202;-78
2022/04/13 11:31:13;;;;;;;3.77;1.90;;;;;;;;;;6268167;28;20529;-76
2022/04/13 11:34:15;;;;;;;2.72;1.60;;;;;;;;;;6259036;28;20037;-78
2022/04/13 11:37:19;;;;;;;3.80;1.50;;;;;;;;;;6280493;28;20136;-79
2022/04/13 11:40:23;;;;;;;2.30;1.63;;;;;;;;;;6263604;28;20187;-77
2022/04/13 11:43:25;;;;;;;3.22;1.58;;;;;;;;;;6263843;28;20061;-76
2022/04/13 11:46:43;;;;;;;2.20;1.50;;;;;;;;;;6270704;28;20037;-81
2022/04/13 11:49:56;;;;;;;2.75;1.52;;;;;;;;;;6264683;28;20523;-78
2022/04/13 11:53:03;;;;;;;3.22;1.67;;;;;;;;;;6264654;28;20103;-81
2022/04/13 11:56:05;;;;;;;5.13;1.60;;;;;;;;;;6264759;28;20607;-79
2022/04/13 11:59:07;;;;;;;3.07;1.67;;;;;;;;;;6287351;28;20127;-81
2022/04/13 12:02:09;;;;;;;4.35;1.38;;;;;;;;;;6261943;28;20048;-80
2022/04/13 12:05:13;;;;;;;2.63;1.55;;;;;;;;;;6289040;28;20086;-78
2022/04/13 12:08:18;;;;;;;2.47;1.35;;;;;;;;;;6270310;28;20048;-77
2022/04/13 12:11:39;;;;;;;2.58;1.50;;;;;;;;;;6241707;28;20053;-78
2022/04/13 12:14:41;;;;;;;2.70;1.73;;;;;;;;;;6238307;28;20080;-76
2022/04/13 12:17:44;;;;;;;4.28;1.77;;;;;;;;;;6240003;28;20038;-76
2022/04/13 12:20:47;;;;;;;2.45;1.80;;;;;;;;;;6255120;28;20258;-77
2022/04/13 12:23:49;;;;;;;3.40;1.42;;;;;;;;;;6259719;28;20076;-75
2022/04/13 12:26:51;;;;;;;6.10;1.77;;;;;;;;;;6262626;28;20128;-77
2022/04/13 12:30:17;;;;;;;3.80;1.50;;;;;;;;;;6264493;28;20094;-76
2022/04/13 12:33:24;;;;;;;3.35;1.65;;;;;;;;;;6270062;28;20120;-76
2022/04/13 12:36:26;;;;;;;3.60;1.48;;;;;;;;;;6268132;28;20076;-76
2022/04/13 12:39:32;;;;;;;1.92;1.10;;;;;;;;;;6278474;28;20160;-76
2022/04/13 12:42:34;;;;;;;3.90;1.40;;;;;;;;;;6263881;28;20744;-76
2022/04/13 12:45:36;;;;;;;4.77;1.50;;;;;;;;;;6263603;28;20133;-77
2022/04/13 12:48:38;;;;;;;3.05;1.80;;;;;;;;;;6287153;28;20506;-77
2022/04/13 12:51:41;;;;;;;;;;;;;;;;;;6287991;28;20067;-77
2022/04/13 12:54:43;;;;;;;3.88;1.55;;;;;;;;;;6275994;28;19921;-75
2022/04/13 12:57:45;;;;;;;4.45;1.20;;;;;;;;;;6263428;28;20643;-78
2022/04/13 13:00:54;;;;;;;7.82;1.27;;;;;;;;;;6260855;28;20462;-78
2022/04/13 13:03:59;;;;;;;6.93;1.40;;;;;;;;;;6268600;28;20065;-78
2022/04/13 13:07:04;;;;;;;5.03;1.70;;;;;;;;;;6288253;28;20048;-77
2022/04/13 13:10:07;;;;;;;5.35;1.40;;;;;;;;;;6266011;28;20047;-76
2022/04/13 13:13:17;;;;;;;4.00;1.38;;;;;;;;;;6268161;28;20179;-80
2022/04/13 13:16:38;;;;;;;2.47;1.58;;;;;;;;;;6271172;28;20433;-79
2022/04/13 13:19:40;;;;;;;3.08;1.67;;;;;;;;;;6283546;28;20747;-82
2022/04/13 13:22:46;;;;;;;6.07;1.50;;;;;;;;;;6297201;28;20041;-78
2022/04/13 13:25:47;;;;;;;6.60;1.45;;;;;;;;;;6283848;28;20049;-78
2022/04/13 13:28:49;;;;;;;5.43;1.10;;;;;;;;;;6295182;28;20123;-78
2022/04/13 13:31:51;;;;;;;3.97;1.27;;;;;;;;;;6293683;28;20151;-77
2022/04/13 13:34:56;;;;;;;3.42;1.00;;;;;;;;;;6296186;28;20451;-81
2022/04/13 13:38:25;;;;;;;4.28;1.30;;;;;;;;;;6291253;28;20539;-77
2022/04/13 13:41:28;;;;;;;5.70;2.08;;;;;;;;;;6275449;28;20182;-78
2022/04/13 13:44:29;;;;;;;;;;;;;;;;;;6282484;28;20083;-78
2022/04/13 13:47:31;;;;;;;4.40;1.50;;;;;;;;;;6284492;28;19920;-78
2022/04/13 13:50:37;;;;;;;3.60;1.38;;;;;;;;;;6288165;28;20182;-78
2022/04/13 13:53:38;;;;;;;5.88;1.20;;;;;;;;;;6280243;28;20806;-76
2022/04/13 13:56:40;;;;;;;5.40;1.38;;;;;;;;;;6263312;28;20072;-76
2022/04/13 13:59:42;;;;;;;3.78;1.20;;;;;;;;;;6262817;28;20159;-76
2022/04/13 14:02:52;;;;;;;5.43;1.30;;;;;;;;;;6261795;28;20180;-77
2022/04/13 14:05:54;;;;;;;7.70;1.30;;;;;;;;;;6274691;28;20044;-79
2022/04/13 14:08:55;;;;;;;4.72;1.38;;;;;;;;;;6284327;28;20052;-78
2022/04/13 14:11:59;;;;;;;4.18;1.50;;;;;;;;;;6273589;28;20182;-80
2022/04/13 14:15:01;;;;;;;3.67;1.40;;;;;;;;;;6253503;28;20033;-79
2022/04/13 14:18:04;;;;;;;7.38;1.30;;;;;;;;;;6288464;28;20048;-80
2022/04/13 14:21:08;;;;;;;6.47;1.45;;;;;;;;;;6288650;28;20123;-82
2022/04/13 14:24:12;;;;;;;7.95;1.67;;;;;;;;;;6307127;28;20051;-80
2022/04/13 14:27:16;;;;;;;4.97;1.40;;;;;;;;;;6263349;28;20417;-80
2022/04/13 14:30:23;;;;;;;4.90;1.77;;;;;;;;;;6276877;28;20222;-80
2022/04/13 14:33:24;;;;;;;5.47;1.50;;;;;;;;;;6286132;28;20064;-81
2022/04/13 14:36:26;;;;;;;3.97;1.27;;;;;;;;;;6246856;28;20382;-82
2022/04/13 14:39:28;;;;;;;4.83;1.20;;;;;;;;;;6271104;28;20138;-80
2022/04/13 14:42:29;;;;;;;2.20;1.30;;;;;;;;;;6280204;28;20087;-80
2022/04/13 14:45:31;;;;;;;3.88;1.52;;;;;;;;;;6260074;28;20069;-82
2022/04/13 14:48:33;;;;;;;5.10;1.30;;;;;;;;;;6260164;28;20128;-80
2022/04/13 14:51:34;;;;;;;3.70;1.70;;;;;;;;;;6283543;28;20108;-83
2022/04/13 14:54:36;;;;;;;3.77;1.50;;;;;;;;;;6275782;28;20095;-82
2022/04/13 14:57:38;;;;;;;5.00;1.60;;;;;;;;;;6287263;28;20113;-83
2022/04/13 15:00:39;;;;;;;3.65;1.60;;;;;;;;;;6275627;28;20052;-81
2022/04/13 15:03:41;;;;;;;5.67;1.53;;;;;;;;;;6261980;28;20055;-78
2022/04/13 15:06:43;;;;;;;5.03;1.63;;;;;;;;;;6278251;28;20455;-79
2022/04/13 15:09:44;;;;;;;7.70;2.00;;;;;;;;;;6271258;28;20695;-78
2022/04/13 15:12:47;;;;;;;3.15;1.52;;;;;;;;;;6280849;28;20114;-83
2022/04/13 15:15:49;;;;;;;7.47;1.65;;;;;;;;;;6272912;28;20409;-80
2022/04/13 15:18:50;;;;;;;8.50;2.00;;;;;;;;;;6282791;28;20045;-78
2022/04/13 15:21:54;;;;;;;4.80;1.73;;;;;;;;;;6276294;28;20449;-77
2022/04/13 15:24:55;;;;;;;5.70;1.60;;;;;;;;;;6271167;28;20112;-78
2022/04/13 15:27:57;;;;;;;7.13;1.97;;;;;;;;;;6281810;28;20110;-80
2022/04/13 15:31:02;;;;;;;8.13;2.37;;;;;;;;;;6267978;28;20045;-78
2022/04/13 15:34:05;;;;;;;6.97;1.60;;;;;;;;;;6261069;28;20120;-78
2022/04/13 15:37:06;;;;;;;5.47;1.80;;;;;;;;;;6296102;28;20102;-79
2022/04/13 15:40:11;;;;;;;5.63;1.63;;;;;;;;;;6261904;28;20123;-79
2022/04/13 15:43:13;;;;;;;4.82;1.80;;;;;;;;;;6264336;28;20049;-75
2022/04/13 15:46:16;;;;;;;4.45;1.77;;;;;;;;;;6269785;28;20653;-79
2022/04/13 15:49:17;;;;;;;5.20;1.40;;;;;;;;;;6288809;28;20075;-78
2022/04/13 15:52:21;;;;;;;3.28;1.30;;;;;;;;;;6287886;28;20098;-79
2022/04/13 15:55:24;;;;;;;6.28;1.70;;;;;;;;;;6270359;28;20449;-79
2022/04/13 15:58:26;;;;;;;6.82;1.55;;;;;;;;;;6287112;28;20040;-79
2022/04/13 16:01:28;;;;;;;4.57;1.67;;;;;;;;;;6270277;28;20071;-79
2022/04/13 16:04:29;;;;;;;5.65;2.13;;;;;;;;;;6271938;28;20041;-78
2022/04/13 16:07:31;;;;;;;4.85;1.67;;;;;;;;;;6293267;28;20063;-78
2022/04/13 16:10:34;;;;;;;4.07;1.75;;;;;;;;;;6270999;28;20466;-78
2022/04/13 16:13:36;;;;;;;6.43;1.90;;;;;;;;;;6264332;28;20045;-79
2022/04/13 16:16:37;;;;;;;6.18;1.88;;;;;;;;;;6268239;28;20045;-78
2022/04/13 16:19:39;;;;;;;3.72;1.58;;;;;;;;;;6267165;28;20041;-79
2022/04/13 16:22:41;;;;;;;3.67;1.73;;;;;;;;;;6268438;28;20064;-79
2022/04/13 16:25:43;;;;;;;6.65;1.67;;;;;;;;;;6278228;28;20090;-79
2022/04/13 16:28:46;;;;;;;;;;;;;;;;;;6269198;28;20052;-78
2022/04/13 16:31:48;;;;;;;;;;;;;;;;;;6268012;28;19979;-79
2022/04/13 16:34:50;;;;;;;5.22;1.63;;;;;;;;;;6278376;28;19931;-78
2022/04/13 16:37:53;;;;;;;6.57;1.60;;;;;;;;;;6292157;28;20406;-78
2022/04/13 16:41:15;;;;;;;4.35;1.60;;;;;;;;;;6267844;28;20083;-78
2022/04/13 16:44:36;;;;;;;7.20;1.70;;;;;;;;;;6269634;28;20041;-78
2022/04/13 16:47:38;;;;;;;4.47;1.85;;;;;;;;;;6277149;28;20040;-78
2022/04/13 16:50:40;;;;;;;4.10;1.92;;;;;;;;;;6282557;28;20115;-79
2022/04/13 16:53:43;;;;;;;5.32;1.92;;;;;;;;;;6298009;28;20128;-78
2022/04/13 16:56:45;;;;;;;5.72;1.90;;;;;;;;;;6266015;28;20056;-76
2022/04/13 16:59:47;;;;;;;8.73;2.40;;;;;;;;;;6265685;28;20126;-77
2022/04/13 17:02:49;;;;;;;5.43;2.35;;;;;;;;;;6263904;28;20120;-78
2022/04/13 17:05:51;;;;;;;5.95;2.10;;;;;;;;;;6281597;28;20405;-81
2022/04/13 17:08:53;;;;;;;6.10;2.80;;;;;;;;;;6283123;28;20049;-81
2022/04/13 17:11:54;;;;;;;5.15;2.38;;;;;;;;;;6265315;28;20052;-79
2022/04/13 17:14:56;;;;;;;5.55;2.50;;;;;;;;;;6266094;28;20110;-80
2022/04/13 17:17:58;;;;;;;4.80;2.58;;;;;;;;;;6265255;28;20040;-80
2022/04/13 17:21:01;;;;;;;;;;;;;;;;;;6266902;28;20324;-79
2022/04/13 17:24:05;;;;;;;8.00;2.67;;;;;;;;;;6242011;28;20530;-77
2022/04/13 17:27:07;;;;;;;8.50;2.63;;;;;;;;;;6273848;28;20040;-80
2022/04/13 17:30:10;;;;;;;7.65;2.58;;;;;;;;;;6283683;28;20051;-78
2022/04/13 17:33:13;;;;;;;5.15;2.65;;;;;;;;;;6268063;28;20104;-78
2022/04/13 17:36:15;;;;;;;8.93;2.70;;;;;;;;;;6273491;28;20147;-81
2022/04/13 17:39:16;;;;;;;6.45;2.60;;;;;;;;;;6289600;28;20044;-80
2022/04/13 17:42:18;;;;;;;9.30;2.63;;;;;;;;;;6258705;28;20131;-78
2022/04/13 17:45:20;;;;;;;10.48;3.08;;;;;;;;;;6278211;28;20101;-79
2022/04/13 17:48:24;;;;;;;8.57;3.35;;;;;;;;;;6286622;28;20075;-79
2022/04/13 17:51:25;;;;;;;7.75;3.35;;;;;;;;;;6285132;28;20083;-77
2022/04/13 17:54:27;;;;;;;13.57;3.60;;;;;;;;;;6284037;28;20079;-80
2022/04/13 17:57:29;;;;;;;11.45;4.18;;;;;;;;;;6261456;28;20048;-77
2022/04/13 18:00:31;;;;;;;7.57;4.20;;;;;;;;;;6261471;28;20706;-79
2022/04/13 18:03:32;;;;;;;12.20;5.23;;;;;;;;;;6261501;28;20120;-79
2022/04/13 18:06:34;;;;;;;10.27;4.38;;;;;;;;;;6278355;28;20605;-77
2022/04/13 18:09:36;;;;;;;10.85;4.35;;;;;;;;;;6266536;28;20123;-80
2022/04/13 18:12:39;;;;;;;10.63;4.82;;;;;;;;;;6263536;28;20060;-79
2022/04/13 18:15:42;;;;;;;11.45;4.70;;;;;;;;;;6275751;28;20049;-78
2022/04/13 18:18:45;;;;;;;10.10;5.10;;;;;;;;;;6277006;28;20107;-79
2022/04/13 18:21:47;;;;;;;14.18;5.07;;;;;;;;;;6261280;28;20349;-79